Time;durP1;ratioP1;P1;durP2;ratioP2;P2;SDS_P1;SDS_P2;PMS_P1;PMS_P2;Temp;Humidity;BMP_temperature;BMP_pressure;BME280_temperature;BME280_humidity;BME280_pressure;Samples;Min_cycle;Max_cycle;Signal;HPM_P1;HPM_P2
2024/02/06 00:02:23;;;;;;;1.50;1.00;;;;;;;;;;5077246;28;20100;-80
2024/02/06 00:04:49;;;;;;;1.65;1.02;;;;;;;;;;5076257;28;20537;-78
2024/02/06 00:07:15;;;;;;;1.25;0.60;;;;;;;;;;5083610;28;20052;-76
2024/02/06 00:09:41;;;;;;;0.88;0.43;;;;;;;;;;5075352;28;20493;-78
2024/02/06 00:12:10;;;;;;;1.10;0.80;;;;;;;;;;5083223;28;20020;-79
2024/02/06 00:14:36;;;;;;;2.60;0.95;;;;;;;;;;5089305;28;20479;-78
2024/02/06 00:17:02;;;;;;;0.98;0.63;;;;;;;;;;5071550;28;20032;-77
2024/02/06 00:19:28;;;;;;;2.40;0.60;;;;;;;;;;5077594;28;20488;-78
2024/02/06 00:21:54;;;;;;;3.67;0.35;;;;;;;;;;5079025;28;20017;-76
2024/02/06 00:24:21;;;;;;;1.17;0.75;;;;;;;;;;5077337;28;20017;-78
2024/02/06 00:26:47;;;;;;;2.00;0.68;;;;;;;;;;5072005;28;20467;-78
2024/02/06 00:29:13;;;;;;;1.08;0.70;;;;;;;;;;5071377;28;20031;-78
2024/02/06 00:31:39;;;;;;;1.65;0.45;;;;;;;;;;5071092;28;20028;-78
2024/02/06 00:34:05;;;;;;;1.95;0.60;;;;;;;;;;5069314;28;20028;-78
2024/02/06 00:36:31;;;;;;;1.67;0.43;;;;;;;;;;5068362;28;20025;-78
2024/02/06 00:38:57;;;;;;;1.25;0.55;;;;;;;;;;5068982;28;20017;-76
2024/02/06 00:41:23;;;;;;;0.70;0.70;;;;;;;;;;5075458;28;20430;-76
2024/02/06 00:43:51;;;;;;;0.57;0.52;;;;;;;;;;5073872;28;20032;-76
2024/02/06 00:46:17;;;;;;;1.98;0.70;;;;;;;;;;5076765;28;20039;-76
2024/02/06 00:48:43;;;;;;;1.65;0.68;;;;;;;;;;5076353;28;20035;-76
2024/02/06 00:51:09;;;;;;;0.50;0.50;;;;;;;;;;5079742;28;20049;-75
2024/02/06 00:53:35;;;;;;;0.40;0.40;;;;;;;;;;5087191;28;20078;-76
2024/02/06 00:56:05;;;;;;;0.85;0.45;;;;;;;;;;5080863;28;20058;-77
2024/02/06 00:58:32;;;;;;;0.50;0.40;;;;;;;;;;5078464;28;20092;-78
2024/02/06 01:00:58;;;;;;;1.05;0.50;;;;;;;;;;5079399;28;20112;-77
2024/02/06 01:03:24;;;;;;;0.60;0.60;;;;;;;;;;5080075;28;20024;-77
2024/02/06 01:05:50;;;;;;;0.32;0.32;;;;;;;;;;5076302;28;20025;-78
2024/02/06 01:08:16;;;;;;;0.32;0.30;;;;;;;;;;5080038;28;20046;-78
2024/02/06 01:10:42;;;;;;;0.60;0.30;;;;;;;;;;5077877;28;20032;-78
2024/02/06 01:13:08;;;;;;;0.80;0.43;;;;;;;;;;5082657;28;20035;-78
2024/02/06 01:15:34;;;;;;;0.30;0.20;;;;;;;;;;5071410;28;20029;-78
2024/02/06 01:18:00;;;;;;;0.50;0.32;;;;;;;;;;5081671;28;20035;-77
2024/02/06 01:20:26;;;;;;;0.40;0.30;;;;;;;;;;5083165;28;20036;-78
2024/02/06 01:22:53;;;;;;;0.22;0.20;;;;;;;;;;5086574;28;20036;-78
2024/02/06 01:25:19;;;;;;;0.47;0.30;;;;;;;;;;5084001;28;20016;-77
2024/02/06 01:27:45;;;;;;;0.90;0.30;;;;;;;;;;5079366;28;20028;-78
2024/02/06 01:30:12;;;;;;;0.45;0.20;;;;;;;;;;5077145;28;20070;-79
2024/02/06 01:32:38;;;;;;;0.30;0.30;;;;;;;;;;5077959;28;20044;-78
2024/02/06 01:35:05;;;;;;;0.20;0.13;;;;;;;;;;5078640;28;20083;-77
2024/02/06 01:37:31;;;;;;;0.38;0.20;;;;;;;;;;5076433;28;20025;-76
2024/02/06 01:39:57;;;;;;;0.30;0.20;;;;;;;;;;5078564;28;20020;-77
2024/02/06 01:42:23;;;;;;;0.30;0.30;;;;;;;;;;5083667;28;20024;-79
2024/02/06 01:44:49;;;;;;;0.38;0.20;;;;;;;;;;5075896;28;20443;-77
2024/02/06 01:47:15;;;;;;;0.20;0.20;;;;;;;;;;5077036;28;20027;-77
2024/02/06 01:49:43;;;;;;;0.82;0.40;;;;;;;;;;5077290;28;20415;-76
2024/02/06 01:52:09;;;;;;;0.50;0.38;;;;;;;;;;5077222;28;20047;-77
2024/02/06 01:54:36;;;;;;;0.65;0.40;;;;;;;;;;5077000;28;20050;-77
2024/02/06 01:57:03;;;;;;;0.45;0.45;;;;;;;;;;5076823;28;20046;-77
2024/02/06 01:59:29;;;;;;;0.65;0.20;;;;;;;;;;5077249;28;20025;-77
2024/02/06 02:01:56;;;;;;;0.25;0.25;;;;;;;;;;5077748;28;20020;-77
2024/02/06 02:04:22;;;;;;;1.85;0.50;;;;;;;;;;5077958;28;20075;-78
2024/02/06 02:06:48;;;;;;;0.45;0.30;;;;;;;;;;5082017;28;20021;-76
2024/02/06 02:09:14;;;;;;;0.22;0.22;;;;;;;;;;5085657;28;20032;-77
2024/02/06 02:11:41;;;;;;;0.98;0.60;;;;;;;;;;5081129;28;20028;-77
2024/02/06 02:14:07;;;;;;;2.53;0.98;;;;;;;;;;5072039;28;20028;-77
2024/02/06 02:16:33;;;;;;;2.13;0.77;;;;;;;;;;5080957;28;20353;-77
2024/02/06 02:18:59;;;;;;;4.25;0.75;;;;;;;;;;5078310;28;20052;-77
2024/02/06 02:21:26;;;;;;;2.58;0.88;;;;;;;;;;5081434;28;20391;-78
2024/02/06 02:23:53;;;;;;;1.52;0.60;;;;;;;;;;5077015;28;20020;-76
2024/02/06 02:26:19;;;;;;;1.02;0.50;;;;;;;;;;5077912;28;20027;-77
2024/02/06 02:28:46;;;;;;;3.28;1.30;;;;;;;;;;5086108;28;20052;-76
2024/02/06 02:31:12;;;;;;;0.57;0.45;;;;;;;;;;5089193;28;20076;-76
2024/02/06 02:33:38;;;;;;;0.88;0.65;;;;;;;;;;5082129;28;20040;-75
2024/02/06 02:36:09;;;;;;;2.90;0.90;;;;;;;;;;5085774;28;20115;-76
2024/02/06 02:38:37;;;;;;;1.75;0.60;;;;;;;;;;5086644;28;20020;-77
2024/02/06 02:41:03;;;;;;;1.75;0.50;;;;;;;;;;5088212;28;20035;-77
2024/02/06 02:43:29;;;;;;;1.60;0.70;;;;;;;;;;5088737;28;20048;-78
2024/02/06 02:45:56;;;;;;;1.17;0.52;;;;;;;;;;5075900;28;20056;-77
2024/02/06 02:48:22;;;;;;;2.15;0.80;;;;;;;;;;5078900;28;20471;-79
2024/02/06 02:50:48;;;;;;;1.60;0.60;;;;;;;;;;5077246;28;20181;-77
2024/02/06 02:53:14;;;;;;;1.42;0.80;;;;;;;;;;5066787;28;20131;-77
2024/02/06 02:55:40;;;;;;;1.40;0.52;;;;;;;;;;5071323;28;20020;-77
2024/02/06 02:58:06;;;;;;;0.98;0.43;;;;;;;;;;5081315;28;20076;-76
2024/02/06 03:00:34;;;;;;;1.00;0.40;;;;;;;;;;5084937;28;20016;-79
2024/02/06 03:03:01;;;;;;;0.63;0.50;;;;;;;;;;5076860;28;20021;-77
2024/02/06 03:05:27;;;;;;;0.75;0.45;;;;;;;;;;5076352;28;20493;-77
2024/02/06 03:07:53;;;;;;;1.60;0.60;;;;;;;;;;5073914;28;20116;-76
2024/02/06 03:10:20;;;;;;;0.75;0.30;;;;;;;;;;5078895;28;20417;-78
2024/02/06 03:12:46;;;;;;;0.40;0.40;;;;;;;;;;5082140;28;20080;-77
2024/02/06 03:15:12;;;;;;;0.20;0.15;;;;;;;;;;5071841;28;20088;-77
2024/02/06 03:17:38;;;;;;;0.40;0.35;;;;;;;;;;5077797;28;20040;-77
2024/02/06 03:20:04;;;;;;;0.10;0.10;;;;;;;;;;5077037;28;20039;-77
2024/02/06 03:22:34;;;;;;;0.65;0.40;;;;;;;;;;5077335;28;20454;-77
2024/02/06 03:25:00;;;;;;;0.45;0.30;;;;;;;;;;5072779;28;20039;-77
2024/02/06 03:27:26;;;;;;;0.28;0.20;;;;;;;;;;5070893;28;20020;-77
2024/02/06 03:29:53;;;;;;;0.77;0.52;;;;;;;;;;5075410;28;20076;-77
2024/02/06 03:32:19;;;;;;;0.63;0.40;;;;;;;;;;5068965;28;20402;-77
2024/02/06 03:34:45;;;;;;;0.30;0.30;;;;;;;;;;5075598;28;20028;-77
2024/02/06 03:37:13;;;;;;;0.70;0.47;;;;;;;;;;5079251;28;20021;-76
2024/02/06 03:39:39;;;;;;;0.40;0.40;;;;;;;;;;5082623;28;20048;-78
2024/02/06 03:42:05;;;;;;;0.82;0.30;;;;;;;;;;5082813;28;20027;-78
2024/02/06 03:44:31;;;;;;;0.60;0.40;;;;;;;;;;5066345;28;20025;-77
2024/02/06 03:46:57;;;;;;;0.65;0.30;;;;;;;;;;5073445;28;20082;-77
2024/02/06 03:49:23;;;;;;;1.83;0.47;;;;;;;;;;5077543;28;20455;-78
2024/02/06 03:51:49;;;;;;;5.55;0.70;;;;;;;;;;5080792;28;20051;-76
2024/02/06 03:54:15;;;;;;;0.82;0.47;;;;;;;;;;5085919;28;20108;-77
2024/02/06 03:56:41;;;;;;;2.35;0.80;;;;;;;;;;5083405;28;20070;-78
2024/02/06 03:59:08;;;;;;;0.80;0.80;;;;;;;;;;5077970;28;20032;-78
2024/02/06 04:01:35;;;;;;;0.77;0.40;;;;;;;;;;5070484;28;20021;-79
2024/02/06 04:04:01;;;;;;;2.25;1.00;;;;;;;;;;5077544;28;20075;-77
2024/02/06 04:06:27;;;;;;;2.30;0.77;;;;;;;;;;5082495;28;20031;-78
2024/02/06 04:08:53;;;;;;;5.55;1.25;;;;;;;;;;5077737;28;20032;-78
2024/02/06 04:11:20;;;;;;;1.33;0.88;;;;;;;;;;5077347;28;20036;-78
2024/02/06 04:13:46;;;;;;;3.55;1.17;;;;;;;;;;5079593;28;20382;-78
2024/02/06 04:16:12;;;;;;;3.20;1.52;;;;;;;;;;5078895;28;20017;-78
2024/02/06 04:18:39;;;;;;;3.38;0.70;;;;;;;;;;5079424;28;20032;-77
2024/02/06 04:21:05;;;;;;;2.92;0.90;;;;;;;;;;5079592;28;20016;-79
2024/02/06 04:23:32;;;;;;;3.00;0.82;;;;;;;;;;5077614;28;20070;-78
2024/02/06 04:25:58;;;;;;;1.70;0.82;;;;;;;;;;5083402;28;20021;-77
2024/02/06 04:28:24;;;;;;;1.65;0.68;;;;;;;;;;5088218;28;20028;-79
2024/02/06 04:30:50;;;;;;;1.40;0.95;;;;;;;;;;5082259;28;20051;-77
2024/02/06 04:33:16;;;;;;;0.70;0.60;;;;;;;;;;5082444;28;20023;-78
2024/02/06 04:35:42;;;;;;;1.23;0.77;;;;;;;;;;5079087;28;20029;-77
2024/02/06 04:38:09;;;;;;;0.55;0.45;;;;;;;;;;5079570;28;20463;-77
2024/02/06 04:40:35;;;;;;;3.22;1.00;;;;;;;;;;5084109;28;20024;-79
2024/02/06 04:43:02;;;;;;;4.60;0.55;;;;;;;;;;5084550;28;20044;-77
2024/02/06 04:45:28;;;;;;;2.75;0.90;;;;;;;;;;5079835;28;20055;-79
2024/02/06 04:47:54;;;;;;;1.85;0.93;;;;;;;;;;5080188;28;20106;-77
2024/02/06 04:50:21;;;;;;;3.28;0.73;;;;;;;;;;5079042;28;20051;-78
2024/02/06 04:52:47;;;;;;;2.65;1.10;;;;;;;;;;5083191;28;20024;-78
2024/02/06 04:55:13;;;;;;;5.88;1.17;;;;;;;;;;5094426;28;20024;-77
2024/02/06 04:57:40;;;;;;;6.43;1.00;;;;;;;;;;5085122;28;20039;-78
2024/02/06 05:00:12;;;;;;;3.28;0.68;;;;;;;;;;5081743;28;20021;-79
2024/02/06 05:02:38;;;;;;;2.17;0.80;;;;;;;;;;5081485;28;20052;-77
2024/02/06 05:05:05;;;;;;;1.15;0.55;;;;;;;;;;5073663;28;20105;-77
2024/02/06 05:07:31;;;;;;;4.18;1.05;;;;;;;;;;5070827;28;20501;-77
2024/02/06 05:09:57;;;;;;;3.03;0.60;;;;;;;;;;5074736;28;20033;-76
2024/02/06 05:12:24;;;;;;;3.47;1.27;;;;;;;;;;5083084;28;20368;-75
2024/02/06 05:14:50;;;;;;;4.47;1.17;;;;;;;;;;5084080;28;20398;-76
2024/02/06 05:17:16;;;;;;;2.97;0.68;;;;;;;;;;5066031;28;20510;-77
2024/02/06 05:19:42;;;;;;;2.42;1.08;;;;;;;;;;5072210;28;20090;-78
2024/02/06 05:22:09;;;;;;;2.03;0.77;;;;;;;;;;5082876;28;20055;-77
2024/02/06 05:24:35;;;;;;;6.53;1.20;;;;;;;;;;5077446;28;20395;-77
2024/02/06 05:27:05;;;;;;;4.15;1.58;;;;;;;;;;5078193;28;20023;-77
2024/02/06 05:29:34;;;;;;;2.97;0.90;;;;;;;;;;5081882;28;20047;-78
2024/02/06 05:32:00;;;;;;;4.50;1.48;;;;;;;;;;5076081;28;20031;-77
2024/02/06 05:34:26;;;;;;;10.43;1.65;;;;;;;;;;5076565;28;20028;-77
2024/02/06 05:36:52;;;;;;;4.18;1.52;;;;;;;;;;5076506;28;20419;-77
2024/02/06 05:39:18;;;;;;;6.05;2.05;;;;;;;;;;5077159;28;20060;-77
2024/02/06 05:41:44;;;;;;;2.20;0.98;;;;;;;;;;5077773;28;20039;-77
2024/02/06 05:44:10;;;;;;;3.00;0.73;;;;;;;;;;5087122;28;20679;-76
2024/02/06 05:46:36;;;;;;;2.38;0.88;;;;;;;;;;5075898;28;20524;-77
2024/02/06 05:49:03;;;;;;;4.43;1.33;;;;;;;;;;5079215;28;20028;-77
2024/02/06 05:51:29;;;;;;;3.92;1.55;;;;;;;;;;5079356;28;20044;-77
2024/02/06 05:53:55;;;;;;;3.75;0.82;;;;;;;;;;5065562;28;20032;-77
2024/02/06 05:56:21;;;;;;;4.80;1.38;;;;;;;;;;5073461;28;20401;-77
2024/02/06 05:58:47;;;;;;;3.92;1.15;;;;;;;;;;5066111;28;20041;-77
2024/02/06 06:01:13;;;;;;;5.30;1.25;;;;;;;;;;5075557;28;20388;-77
2024/02/06 06:03:39;;;;;;;4.47;1.23;;;;;;;;;;5077708;28;20017;-75
2024/02/06 06:06:05;;;;;;;10.18;2.03;;;;;;;;;;5078794;28;20051;-78
2024/02/06 06:08:32;;;;;;;8.85;1.30;;;;;;;;;;5083833;28;20024;-76
2024/02/06 06:10:58;;;;;;;3.80;1.60;;;;;;;;;;5080030;28;20032;-77
2024/02/06 06:13:27;;;;;;;4.63;1.40;;;;;;;;;;5100077;28;20060;-77
2024/02/06 06:15:53;;;;;;;5.47;1.00;;;;;;;;;;5079242;28;20534;-77
2024/02/06 06:18:19;;;;;;;6.50;1.23;;;;;;;;;;5067961;28;20020;-77
2024/02/06 06:20:45;;;;;;;4.70;1.30;;;;;;;;;;5079728;28;20024;-76
2024/02/06 06:23:11;;;;;;;3.47;1.02;;;;;;;;;;5073268;28;20472;-76
2024/02/06 06:25:37;;;;;;;5.38;1.60;;;;;;;;;;5079479;28;20024;-76
2024/02/06 06:28:04;;;;;;;5.28;1.10;;;;;;;;;;5084313;28;20046;-76
2024/02/06 06:30:30;;;;;;;3.33;1.40;;;;;;;;;;5082075;28;20024;-76
2024/02/06 06:32:57;;;;;;;4.57;1.23;;;;;;;;;;5081490;28;20026;-77
2024/02/06 06:35:23;;;;;;;6.65;1.60;;;;;;;;;;5074221;28;20048;-76
2024/02/06 06:37:49;;;;;;;3.38;1.65;;;;;;;;;;5068260;28;20032;-77
2024/02/06 06:40:15;;;;;;;3.95;1.52;;;;;;;;;;5070686;28;20028;-76
2024/02/06 06:42:41;;;;;;;8.20;2.58;;;;;;;;;;5078275;28;20025;-76
2024/02/06 06:45:08;;;;;;;6.60;2.22;;;;;;;;;;5089311;28;20029;-77
2024/02/06 06:47:34;;;;;;;5.68;1.85;;;;;;;;;;5083793;28;20031;-77
2024/02/06 06:50:00;;;;;;;5.68;1.52;;;;;;;;;;5073380;28;20032;-78
2024/02/06 06:52:27;;;;;;;13.68;3.20;;;;;;;;;;5069421;28;20017;-77
2024/02/06 06:54:54;;;;;;;5.40;1.60;;;;;;;;;;5075148;28;20024;-77
2024/02/06 06:57:20;;;;;;;6.55;1.60;;;;;;;;;;5069179;28;20030;-78
2024/02/06 06:59:46;;;;;;;12.40;2.53;;;;;;;;;;5084331;28;20048;-76
2024/02/06 07:02:12;;;;;;;7.20;1.95;;;;;;;;;;5073264;28;20067;-76
2024/02/06 07:04:38;;;;;;;8.35;2.47;;;;;;;;;;5087675;28;20059;-77
2024/02/06 07:07:04;;;;;;;4.13;1.80;;;;;;;;;;5072479;28;20024;-78
2024/02/06 07:09:31;;;;;;;7.85;2.45;;;;;;;;;;5085912;28;20483;-76
2024/02/06 07:11:57;;;;;;;5.32;1.52;;;;;;;;;;5095910;28;20050;-78
2024/02/06 07:14:23;;;;;;;6.35;2.60;;;;;;;;;;5085596;28;20528;-81
2024/02/06 07:16:49;;;;;;;9.63;3.90;;;;;;;;;;5086784;28;20035;-79
2024/02/06 07:19:15;;;;;;;9.63;4.03;;;;;;;;;;5085256;28;20029;-78
2024/02/06 07:21:41;;;;;;;11.30;3.72;;;;;;;;;;5088833;28;20037;-78
2024/02/06 07:24:08;;;;;;;10.43;3.90;;;;;;;;;;5095528;28;20028;-78
2024/02/06 07:26:34;;;;;;;7.40;3.60;;;;;;;;;;5082257;28;20033;-78
2024/02/06 07:29:00;;;;;;;11.23;4.07;;;;;;;;;;5085764;28;20012;-79
2024/02/06 07:31:26;;;;;;;17.15;4.97;;;;;;;;;;5074082;28;20032;-77
2024/02/06 07:33:52;;;;;;;9.23;4.55;;;;;;;;;;5079233;28;20017;-79
2024/02/06 07:36:18;;;;;;;11.32;4.45;;;;;;;;;;5079538;28;20024;-78
2024/02/06 07:38:48;;;;;;;12.80;4.43;;;;;;;;;;5080072;28;20092;-78
2024/02/06 07:41:14;;;;;;;14.82;4.38;;;;;;;;;;5078641;28;20020;-77
2024/02/06 07:43:40;;;;;;;15.13;4.97;;;;;;;;;;5084152;28;20016;-77
2024/02/06 07:46:07;;;;;;;10.93;5.10;;;;;;;;;;5090167;28;20060;-79
2024/02/06 07:48:33;;;;;;;10.02;4.60;;;;;;;;;;5082201;28;20029;-77
2024/02/06 07:50:59;;;;;;;15.48;5.43;;;;;;;;;;5084655;28;20034;-77
2024/02/06 07:53:26;;;;;;;12.23;5.78;;;;;;;;;;5079555;28;20170;-78
2024/02/06 07:55:52;;;;;;;15.32;5.63;;;;;;;;;;5076406;28;20070;-79
2024/02/06 07:58:18;;;;;;;15.82;5.10;;;;;;;;;;5071257;28;20079;-77
2024/02/06 08:00:45;;;;;;;16.40;6.03;;;;;;;;;;5080666;28;20035;-78
2024/02/06 08:03:11;;;;;;;12.55;6.38;;;;;;;;;;5087977;28;20068;-77
2024/02/06 08:05:38;;;;;;;15.63;5.95;;;;;;;;;;5075288;28;20040;-78
2024/02/06 08:08:05;;;;;;;11.75;5.85;;;;;;;;;;5082748;28;20021;-77
2024/02/06 08:10:31;;;;;;;13.48;6.20;;;;;;;;;;5081672;28;20090;-77
2024/02/06 08:12:57;;;;;;;20.35;6.22;;;;;;;;;;5087526;28;20150;-78
2024/02/06 08:15:23;;;;;;;10.35;5.45;;;;;;;;;;5083351;28;20028;-77
2024/02/06 08:17:50;;;;;;;15.77;5.18;;;;;;;;;;5084468;28;20024;-80
2024/02/06 08:20:19;;;;;;;13.95;6.53;;;;;;;;;;5084057;28;20029;-78
2024/02/06 08:22:47;;;;;;;17.92;6.00;;;;;;;;;;5076533;28;20050;-78
2024/02/06 08:25:15;;;;;;;16.65;5.72;;;;;;;;;;5083546;28;20016;-77
2024/02/06 08:27:41;;;;;;;12.35;5.32;;;;;;;;;;5082377;28;20044;-77
2024/02/06 08:30:09;;;;;;;10.95;5.18;;;;;;;;;;5086335;28;20028;-77
2024/02/06 08:32:35;;;;;;;15.00;6.15;;;;;;;;;;5083171;28;20062;-78
2024/02/06 08:35:01;;;;;;;11.98;6.07;;;;;;;;;;5084592;28;20104;-78
2024/02/06 08:37:28;;;;;;;13.63;5.75;;;;;;;;;;5077182;28;20024;-79
2024/02/06 08:39:54;;;;;;;7.03;4.43;;;;;;;;;;5084672;28;20029;-79
2024/02/06 08:42:20;;;;;;;7.25;4.28;;;;;;;;;;5090745;28;20017;-79
2024/02/06 08:44:46;;;;;;;11.05;4.72;;;;;;;;;;5082862;28;20024;-78
2024/02/06 08:47:13;;;;;;;18.17;5.18;;;;;;;;;;5085985;28;20017;-78
2024/02/06 08:49:39;;;;;;;11.05;4.78;;;;;;;;;;5088877;28;20029;-79
2024/02/06 08:52:05;;;;;;;11.15;4.80;;;;;;;;;;5081944;28;20031;-78
2024/02/06 08:54:31;;;;;;;11.48;4.50;;;;;;;;;;5081921;28;20493;-78
2024/02/06 08:56:57;;;;;;;21.90;5.90;;;;;;;;;;5081953;28;20104;-78
2024/02/06 08:59:24;;;;;;;11.52;4.95;;;;;;;;;;5083350;28;20036;-79
2024/02/06 09:01:50;;;;;;;14.73;5.70;;;;;;;;;;5082692;28;20017;-79
2024/02/06 09:04:16;;;;;;;12.93;4.85;;;;;;;;;;5082696;28;20207;-79
2024/02/06 09:06:43;;;;;;;9.00;4.50;;;;;;;;;;5082312;28;20078;-78
2024/02/06 09:09:09;;;;;;;9.88;4.28;;;;;;;;;;5083271;28;20388;-79
2024/02/06 09:11:35;;;;;;;7.32;3.90;;;;;;;;;;5082823;28;20033;-79
2024/02/06 09:14:01;;;;;;;10.18;5.32;;;;;;;;;;5081108;28;20088;-77
2024/02/06 09:16:27;;;;;;;9.27;5.07;;;;;;;;;;5080705;28;20072;-78
2024/02/06 09:18:53;;;;;;;11.35;5.13;;;;;;;;;;5082129;28;20024;-78
2024/02/06 09:21:20;;;;;;;10.63;4.93;;;;;;;;;;5081149;28;20032;-79
2024/02/06 09:23:46;;;;;;;12.48;4.00;;;;;;;;;;5085900;28;20036;-77
2024/02/06 09:26:12;;;;;;;12.00;5.13;;;;;;;;;;5072298;28;20024;-79
2024/02/06 09:28:39;;;;;;;14.43;5.13;;;;;;;;;;5081430;28;20074;-78
2024/02/06 09:31:05;;;;;;;12.20;4.38;;;;;;;;;;5081361;28;20056;-80
2024/02/06 09:33:31;;;;;;;9.52;4.30;;;;;;;;;;5081603;28;20028;-79
2024/02/06 09:35:58;;;;;;;9.00;4.15;;;;;;;;;;5080025;28;20414;-77
2024/02/06 09:38:24;;;;;;;9.52;3.92;;;;;;;;;;5079010;28;20028;-77
2024/02/06 09:40:51;;;;;;;13.38;4.35;;;;;;;;;;5089264;28;20085;-79
2024/02/06 09:43:17;;;;;;;5.63;3.15;;;;;;;;;;5082759;28;20691;-78
2024/02/06 09:45:44;;;;;;;10.13;3.97;;;;;;;;;;5078730;28;20435;-78
2024/02/06 09:48:10;;;;;;;12.73;4.07;;;;;;;;;;5080322;28;20452;-78
2024/02/06 09:50:36;;;;;;;12.00;3.83;;;;;;;;;;5080693;28;20055;-79
2024/02/06 09:53:02;;;;;;;10.77;4.10;;;;;;;;;;5080768;28;20039;-78
2024/02/06 09:55:29;;;;;;;7.68;3.95;;;;;;;;;;5081117;28;20036;-78
2024/02/06 09:57:57;;;;;;;11.23;3.75;;;;;;;;;;5092165;28;20076;-80
2024/02/06 10:00:24;;;;;;;10.98;4.10;;;;;;;;;;5074725;28;20029;-79
2024/02/06 10:02:53;;;;;;;10.32;3.83;;;;;;;;;;5080976;28;20029;-79
2024/02/06 10:05:22;;;;;;;11.00;3.90;;;;;;;;;;5071232;28;20055;-79
2024/02/06 10:07:49;;;;;;;10.32;4.20;;;;;;;;;;5080363;28;20054;-78
2024/02/06 10:10:18;;;;;;;9.93;4.05;;;;;;;;;;5083369;28;20029;-78
2024/02/06 10:12:47;;;;;;;4.57;3.05;;;;;;;;;;5090277;28;20076;-78
2024/02/06 10:15:23;;;;;;;8.10;3.65;;;;;;;;;;5087636;28;20056;-79
2024/02/06 10:17:49;;;;;;;8.98;4.22;;;;;;;;;;5069952;28;20034;-77
2024/02/06 10:20:16;;;;;;;12.02;4.53;;;;;;;;;;5079889;28;20403;-78
2024/02/06 10:22:42;;;;;;;8.07;4.28;;;;;;;;;;5084038;28;20028;-81
2024/02/06 10:25:09;;;;;;;6.88;3.92;;;;;;;;;;5084468;28;20025;-80
2024/02/06 10:27:35;;;;;;;9.70;4.57;;;;;;;;;;5081862;28;20315;-78
2024/02/06 10:30:02;;;;;;;17.85;4.72;;;;;;;;;;5084811;28;20271;-79
2024/02/06 10:32:31;;;;;;;11.18;4.47;;;;;;;;;;5084308;28;20025;-79
2024/02/06 10:35:01;;;;;;;11.00;4.07;;;;;;;;;;5076825;28;20029;-79
2024/02/06 10:37:27;;;;;;;10.55;3.55;;;;;;;;;;5075746;28;20024;-79
2024/02/06 10:39:54;;;;;;;8.73;4.43;;;;;;;;;;5088133;28;20482;-78
2024/02/06 10:42:20;;;;;;;9.82;3.60;;;;;;;;;;5090631;28;20069;-78
2024/02/06 10:44:46;;;;;;;13.00;3.70;;;;;;;;;;5081577;28;20052;-78
2024/02/06 10:47:15;;;;;;;10.35;4.20;;;;;;;;;;5074730;28;20085;-79
2024/02/06 10:49:42;;;;;;;10.40;3.88;;;;;;;;;;5078247;28;20310;-78
2024/02/06 10:52:09;;;;;;;9.93;5.47;;;;;;;;;;5075448;28;20031;-79
2024/02/06 10:54:35;;;;;;;8.40;3.88;;;;;;;;;;5087253;28;20029;-78
2024/02/06 10:57:08;;;;;;;11.52;4.43;;;;;;;;;;5096613;28;20017;-77
2024/02/06 10:59:39;;;;;;;10.10;3.80;;;;;;;;;;5095005;28;20188;-78
2024/02/06 11:02:10;;;;;;;12.77;4.35;;;;;;;;;;5095801;27;20020;-77
2024/02/06 11:04:37;;;;;;;9.40;3.92;;;;;;;;;;5094293;27;20033;-77
2024/02/06 11:07:06;;;;;;;7.25;3.88;;;;;;;;;;5093557;28;20047;-78
2024/02/06 11:09:35;;;;;;;10.75;4.20;;;;;;;;;;5093315;28;20012;-77
2024/02/06 11:12:02;;;;;;;11.88;3.95;;;;;;;;;;5100780;28;20029;-78
2024/02/06 11:14:28;;;;;;;8.90;3.70;;;;;;;;;;5086927;28;20044;-77
2024/02/06 11:16:58;;;;;;;10.02;3.80;;;;;;;;;;5079878;28;20050;-79
2024/02/06 11:19:30;;;;;;;13.45;4.30;;;;;;;;;;5069874;28;20094;-77
2024/02/06 11:22:08;;;;;;;16.80;4.97;;;;;;;;;;5079693;28;20028;-77
2024/02/06 11:24:35;;;;;;;12.07;5.18;;;;;;;;;;5084085;28;20039;-77
2024/02/06 11:27:02;;;;;;;14.15;4.35;;;;;;;;;;5074185;28;20033;-78
2024/02/06 11:29:28;;;;;;;9.20;4.20;;;;;;;;;;5078588;28;20490;-79
2024/02/06 11:31:54;;;;;;;9.88;4.38;;;;;;;;;;5077801;28;20028;-78
2024/02/06 11:34:22;;;;;;;12.32;5.18;;;;;;;;;;5078398;28;20067;-78
2024/02/06 11:36:48;;;;;;;6.53;3.40;;;;;;;;;;5080037;28;20020;-77
2024/02/06 11:39:15;;;;;;;12.00;3.25;;;;;;;;;;5081478;28;20109;-77
2024/02/06 11:41:42;;;;;;;4.95;2.60;;;;;;;;;;5089069;28;20038;-76
2024/02/06 11:44:10;;;;;;;10.57;3.67;;;;;;;;;;5070884;28;20024;-78
2024/02/06 11:46:42;;;;;;;7.13;3.40;;;;;;;;;;5076596;28;20024;-77
2024/02/06 11:49:08;;;;;;;9.48;3.92;;;;;;;;;;5075907;28;20035;-78
2024/02/06 11:51:34;;;;;;;7.55;2.90;;;;;;;;;;5074835;28;20041;-78
2024/02/06 11:54:13;;;;;;;7.82;3.55;;;;;;;;;;5078021;28;20043;-78
2024/02/06 11:56:42;;;;;;;6.78;3.08;;;;;;;;;;5082053;28;20020;-77
2024/02/06 11:59:11;;;;;;;11.18;3.92;;;;;;;;;;5092695;28;20032;-78
2024/02/06 12:01:37;;;;;;;11.55;4.13;;;;;;;;;;5088217;28;20027;-77
2024/02/06 12:04:05;;;;;;;12.27;3.90;;;;;;;;;;5085403;28;20080;-77
2024/02/06 12:06:31;;;;;;;7.63;3.38;;;;;;;;;;5086170;28;20036;-77
2024/02/06 12:09:05;;;;;;;5.15;3.22;;;;;;;;;;5078300;28;20562;-78
2024/02/06 12:11:35;;;;;;;9.10;3.50;;;;;;;;;;5077671;28;20067;-77
2024/02/06 12:14:01;;;;;;;10.15;3.55;;;;;;;;;;5089716;28;20054;-77
2024/02/06 12:16:27;;;;;;;7.85;2.85;;;;;;;;;;5080923;28;20016;-79
2024/02/06 12:18:53;;;;;;;13.95;3.65;;;;;;;;;;5079329;28;20020;-78
2024/02/06 12:21:23;;;;;;;5.78;2.38;;;;;;;;;;5077960;28;20028;-79
2024/02/06 12:23:49;;;;;;;6.47;3.08;;;;;;;;;;5079316;28;20021;-78
2024/02/06 12:26:24;;;;;;;6.47;2.55;;;;;;;;;;5079616;28;20129;-78
2024/02/06 12:29:00;;;;;;;5.80;3.10;;;;;;;;;;5081345;28;20080;-78
2024/02/06 12:31:27;;;;;;;7.90;3.05;;;;;;;;;;5080835;28;20042;-78
2024/02/06 12:33:54;;;;;;;8.35;3.00;;;;;;;;;;5079365;28;20059;-79
2024/02/06 12:36:20;;;;;;;8.77;3.60;;;;;;;;;;5079307;28;20082;-78
2024/02/06 12:38:50;;;;;;;14.02;3.60;;;;;;;;;;5085327;28;20769;-78
2024/02/06 12:41:17;;;;;;;7.82;3.00;;;;;;;;;;5069314;28;20028;-78
2024/02/06 12:43:43;;;;;;;7.25;3.40;;;;;;;;;;5084877;28;20096;-78
2024/02/06 12:46:09;;;;;;;6.97;3.75;;;;;;;;;;5072934;28;20467;-79
2024/02/06 12:48:37;;;;;;;8.75;3.85;;;;;;;;;;5081304;28;20044;-77
2024/02/06 12:51:03;;;;;;;7.30;2.80;;;;;;;;;;5083024;28;20476;-80
2024/02/06 12:53:29;;;;;;;8.65;3.38;;;;;;;;;;5083768;28;20054;-78
2024/02/06 12:55:55;;;;;;;10.57;2.75;;;;;;;;;;5082093;28;20025;-78
2024/02/06 12:58:21;;;;;;;8.60;3.03;;;;;;;;;;5080870;28;21422;-79
2024/02/06 13:00:58;;;;;;;5.72;3.10;;;;;;;;;;5082677;28;20028;-79
2024/02/06 13:03:24;;;;;;;11.35;3.28;;;;;;;;;;5081712;28;20526;-78
2024/02/06 13:05:55;;;;;;;8.60;2.78;;;;;;;;;;5082516;28;20088;-78
2024/02/06 13:08:21;;;;;;;7.15;3.42;;;;;;;;;;5073688;28;20124;-78
2024/02/06 13:10:47;;;;;;;6.03;2.67;;;;;;;;;;5082355;28;20024;-78
2024/02/06 13:13:20;;;;;;;10.20;2.78;;;;;;;;;;5081470;28;20076;-79
2024/02/06 13:15:46;;;;;;;7.10;3.08;;;;;;;;;;5089487;28;20440;-78
2024/02/06 13:18:16;;;;;;;9.43;3.00;;;;;;;;;;5079043;28;20021;-78
2024/02/06 13:20:43;;;;;;;6.68;2.80;;;;;;;;;;5082962;28;20025;-77
2024/02/06 13:23:14;;;;;;;9.93;2.70;;;;;;;;;;5087196;28;20021;-77
2024/02/06 13:25:40;;;;;;;12.68;3.22;;;;;;;;;;5084221;28;20035;-79
2024/02/06 13:28:07;;;;;;;7.20;2.65;;;;;;;;;;5081335;28;20051;-78
2024/02/06 13:30:33;;;;;;;9.68;3.97;;;;;;;;;;5081580;28;20095;-78
2024/02/06 13:32:59;;;;;;;10.63;3.22;;;;;;;;;;5085007;28;20367;-79
2024/02/06 13:35:26;;;;;;;7.35;3.38;;;;;;;;;;5079880;28;20048;-79
2024/02/06 13:37:52;;;;;;;5.68;2.90;;;;;;;;;;5080462;28;20056;-78
2024/02/06 13:40:18;;;;;;;8.10;3.00;;;;;;;;;;5080706;28;20020;-78
2024/02/06 13:42:44;;;;;;;9.88;3.10;;;;;;;;;;5086095;28;20375;-78
2024/02/06 13:45:11;;;;;;;9.32;3.30;;;;;;;;;;5078728;28;20024;-78
2024/02/06 13:47:37;;;;;;;11.32;3.50;;;;;;;;;;5081218;28;20020;-77
2024/02/06 13:50:03;;;;;;;7.03;3.08;;;;;;;;;;5080204;28;20032;-77
2024/02/06 13:52:29;;;;;;;7.78;2.88;;;;;;;;;;5082464;28;20035;-78
2024/02/06 13:54:55;;;;;;;6.05;3.00;;;;;;;;;;5083269;28;20090;-79
2024/02/06 13:57:23;;;;;;;7.47;3.35;;;;;;;;;;5079001;28;20047;-77
2024/02/06 13:59:49;;;;;;;7.50;3.63;;;;;;;;;;5080722;28;20045;-77
2024/02/06 14:02:15;;;;;;;10.45;3.83;;;;;;;;;;5081983;28;20028;-78
2024/02/06 14:04:41;;;;;;;7.60;3.42;;;;;;;;;;5080460;28;20359;-78
2024/02/06 14:07:07;;;;;;;7.75;3.38;;;;;;;;;;5081257;28;20020;-79
2024/02/06 14:09:33;;;;;;;6.10;3.38;;;;;;;;;;5080131;28;20052;-77
2024/02/06 14:11:59;;;;;;;10.27;3.88;;;;;;;;;;5085726;28;20024;-79
2024/02/06 14:14:26;;;;;;;10.80;3.42;;;;;;;;;;5084383;28;20035;-78
2024/02/06 14:16:53;;;;;;;4.93;2.88;;;;;;;;;;5077203;28;20066;-78
2024/02/06 14:19:19;;;;;;;5.15;2.60;;;;;;;;;;5081003;28;20031;-79
2024/02/06 14:21:47;;;;;;;5.35;3.08;;;;;;;;;;5080788;28;20387;-81
2024/02/06 14:24:13;;;;;;;7.72;3.90;;;;;;;;;;5080419;28;20046;-79
2024/02/06 14:26:39;;;;;;;8.85;3.60;;;;;;;;;;5082278;28;20016;-79
2024/02/06 14:29:06;;;;;;;6.47;3.25;;;;;;;;;;5080363;28;20024;-77
2024/02/06 14:31:32;;;;;;;10.63;3.13;;;;;;;;;;5075790;28;20025;-79
2024/02/06 14:33:59;;;;;;;5.78;3.13;;;;;;;;;;5075842;28;20028;-82
2024/02/06 14:36:29;;;;;;;7.63;3.42;;;;;;;;;;5083246;28;20028;-79